Aviation Digital Data Service (ADDS)

Output produced by TAFs form (0359 UTC 11 December 2017)
found at http://www.aviationweather.gov/adds/tafs/
 
KGSP 110353Z 26006KT 10SM CLR 01/M04 A3014 RMK AO2 SLP212 T00111044
KGSP 102320Z 1100/1124 23006KT P6SM SKC